• Join FlightAware (Why Join?)
  • Login
  • US Flag 
01:45AM EDT


 

Airport Tracker/Info


-or-


 

Live Flight TrackerFlight Track Log ✈ ASQ4209 ✈ 15-May-2013 ✈ KIAH - KTYS

Flight Track Log - Related Links

Times and Time Zones

All times are in EDT time to prevent confusion due to time zone crossing. See the ASQ4209 flight status page for this flight to view local times or setup timezone preferences in your user account.

Time Position Orientation Groundspeed Altitude Reporting Facility
EDT Latitude Longitude Course Direction KTS MPH feet Rate Location/Type
10:40PM 29.9772 -95.3056 90° East 128 147 500  Level Houston Center
10:41PM 29.9717 -95.2242 94° East 215 247 3,000 1,920 Climbing Houston Center
10:42PM 29.9711 -95.1978 91° East 205 236 3,700 1,920 Climbing Houston Center
10:42PM 29.9719 -95.1372 89° East 265 305 5,000 1,920 Climbing Houston Center
10:43PM 29.9834 -94.9043 90° East  Level FlightAware Approximate
10:43PM 29.9739 -95.1103 85° East 266 306 5,700  Level Houston Center
10:43PM 29.9739 -95.0672 90° East 292 336 6,600 2,040 Climbing Houston Center
10:44PM 29.9834 -94.7613 90° East  Level FlightAware Approximate
10:44PM 29.9764 -95.0178 87° East 286 329 7,800  Level Houston Center
10:44PM 29.9783 -94.9581 88° East 298 343 9,000 1,980 Climbing Houston Center
10:45PM 29.9833 -94.6182 90° East  Level FlightAware Approximate
10:45PM 29.9800 -94.9197 87° East 302 348 9,900  Level Houston Center
10:46PM 29.9828 -94.8153 88° East 321 369 11,000 1,080 Climbing Houston Center
10:47PM 29.9864 -94.6956 88° East 368 423 12,100 1,140 Climbing Houston Center
10:48PM 29.9894 -94.5725 88° East 382 440 13,400 1,380 Climbing Houston Center
10:49PM 29.9931 -94.4342 88° East 391 450 15,000 1,500 Climbing Houston Center
10:50PM 29.9961 -94.3089 88° East 393 452 16,500 1,320 Climbing Houston Center
10:51PM 30.0114 -94.1850 82° East 393 452 17,800 1,260 Climbing Houston Center
10:52PM 30.0267 -94.0606 82° East 392 451 19,100 1,140 Climbing Houston Center
10:53PM 30.0431 -93.9311 82° East 406 467 20,200 1,020 Climbing Houston Center
10:54PM 30.0583 -93.7983 82° East 419 482 21,300 1,020 Climbing Houston Center
10:55PM 30.0747 -93.6631 82° East 428 493 22,300 1,020 Climbing Houston Center
10:56PM 30.0911 -93.5258 82° East 437 503 23,400 1,080 Climbing Houston Center
10:57PM 30.1111 -93.3583 82° East 446 513 24,600 1,020 Climbing Houston Center
10:58PM 30.1272 -93.2172 82° East 449 517 25,500 900 Climbing Houston Center
10:59PM 30.1578 -93.0772 76° East 463 533 26,500 960 Climbing Houston Center
11:00PM 30.2239 -92.9539 58° Northeast 457 526 27,500 960 Climbing Houston Center
11:01PM 30.2914 -92.8297 58° Northeast 460 529 28,500 900 Climbing Houston Center
11:02PM 30.3603 -92.7039 58° Northeast 464 534 29,400 900 Climbing Houston Center
11:03PM 30.4297 -92.5761 58° Northeast 469 540 30,400 1,020 Climbing Houston Center
11:04PM 30.5036 -92.4383 58° Northeast 472 543 31,500 1,020 Climbing Houston Center
11:05PM 30.5739 -92.3086 58° Northeast 476 548 32,500 720 Climbing Houston Center
11:06PM 30.6450 -92.1772 58° Northeast 482 555 33,000 240 Climbing Houston Center
11:07PM 30.7317 -92.0142 58° Northeast 494 568 33,000  Level Houston Center
11:08PM 30.8067 -91.8739 58° Northeast 508 585 33,000  Level Houston Center
11:09PM 30.8819 -91.7339 58° Northeast 512 589 33,000  Level Houston Center
11:10PM 30.9572 -91.5933 58° Northeast 514 592 33,000  Level Houston Center
11:11PM 31.0319 -91.4525 58° Northeast 514 592 33,000  Level Houston Center
11:12PM 31.1039 -91.3156 58° Northeast 514 592 33,000  Level Houston Center
11:13PM 31.1783 -91.1733 59° Northeast 514 592 33,000  Level Houston Center
11:14PM 31.2508 -91.0314 59° Northeast 511 588 33,000  Level Houston Center
11:15PM 31.3256 -90.8883 59° Northeast 512 589 33,000  Level Houston Center
11:16PM 31.4167 -90.7150 58° Northeast 518 596 33,000  Level Houston Center
11:17PM 31.4897 -90.5714 59° Northeast 516 594 33,000  Level Houston Center
11:18PM 31.5633 -90.4283 59° Northeast 512 589 33,000  Level Houston Center
11:19PM 31.6378 -90.2839 59° Northeast 514 592 33,000  Level Houston Center
11:20PM 31.7103 -90.1394 59° Northeast 514 592 33,000  Level Houston Center
11:21PM 31.7831 -89.9972 59° Northeast 510 587 33,000  Level Houston Center
11:22PM 31.8633 -89.8406 59° Northeast 509 586 33,000  Level Houston Center
11:23PM 31.9250 -89.7186 59° Northeast 513 590 33,000  Level Memphis Center
11:24PM 31.9950 -89.5758 60° Northeast 508 585 33,000  Level Memphis Center
11:25PM 32.0692 -89.4331 58° Northeast 508 585 33,000  Level Memphis Center
11:26PM 32.1472 -89.2753 60° Northeast 508 585 33,000  Level Memphis Center
11:27PM 32.2169 -89.1344 60° Northeast 508 585 33,000  Level Memphis Center
11:28PM 32.2886 -88.9911 59° Northeast 508 585 33,000  Level Memphis Center
11:29PM 32.3600 -88.8472 60° Northeast 508 585 33,000  Level Memphis Center
11:30PM 32.4419 -88.7156 54° Northeast 503 579 33,000  Level Memphis Center
11:31PM 32.5319 -88.5881 50° Northeast 496 571 33,000  Level Memphis Center
11:32PM 32.6178 -88.4606 51° Northeast 496 571 33,000  Level Memphis Center
11:33PM 32.7075 -88.3328 50° Northeast 496 571 33,000  Level Memphis Center
11:35PM 32.8961 -88.0514 51° Northeast 499 574 33,000  Level Atlanta Center
11:36PM 32.9772 -87.9339 51° Northeast 499 574 33,000  Level Atlanta Center
11:37PM 33.0711 -87.7967 51° Northeast 499 574 33,000  Level Atlanta Center
11:38PM 33.1564 -87.6664 52° Northeast 499 574 33,000  Level Atlanta Center
11:39PM 33.2436 -87.5358 51° Northeast 499 574 33,000  Level Atlanta Center
11:40PM 33.3331 -87.4028 51° Northeast 494 568 33,000  Level Atlanta Center
11:42PM 33.4129 -87.2791 52° Northeast  Level FlightAware Approximate
11:42PM 33.5044 -87.1478 52° Northeast 494 568 33,000  Level Atlanta Center
11:43PM 33.5869 -87.0186 52° Northeast 494 568 33,000  Level Atlanta Center
11:44PM 33.6736 -86.8919 51° Northeast 494 568 33,000  Level Atlanta Center
11:45PM 33.7639 -86.7750 47° Northeast 483 556 33,000  Level Atlanta Center
11:46PM 33.8500 -86.6578 48° Northeast 469 540 33,000  Level Atlanta Center
11:47PM 33.9400 -86.5378 48° Northeast 469 540 33,000  Level Atlanta Center
11:48PM 34.0344 -86.4150 47° Northeast 478 550 33,000  Level Atlanta Center
11:49PM 34.1264 -86.2922 48° Northeast 483 556 33,000  Level Atlanta Center
11:50PM 34.2161 -86.1714 48° Northeast 483 556 33,000  Level Atlanta Center
11:51PM 34.3081 -86.0481 48° Northeast 483 556 33,000  Level Atlanta Center
11:52PM 34.3956 -85.9269 49° Northeast 483 556 33,000  Level Atlanta Center
11:53PM 34.4722 -85.8253 48° Northeast 483 556 33,000  Level Atlanta Center
11:54PM 34.5700 -85.6961 47° Northeast 477 549 33,000 -240 Level Atlanta Center
11:55PM 34.6592 -85.5692 49° Northeast 482 555 32,600 -1,380 Descending Atlanta Center
11:56PM 34.7483 -85.4469 48° Northeast 482 555 30,300 -2,400 Descending Atlanta Center
11:57PM 34.8353 -85.3294 48° Northeast 475 547 27,800 -2,460 Descending Atlanta Center
11:58PM 34.9197 -85.2117 49° Northeast 464 534 25,400 -1,920 Descending Atlanta Center
11:59PM 35.0064 -85.0936 48° Northeast 464 534 24,000 -720 Descending Atlanta Center
12:00AM 35.0950 -84.9781 47° Northeast 464 534 24,000 -60 Level Atlanta Center
12:01AM 35.1792 -84.8672 47° Northeast 459 528 23,900 -1,860 Descending Atlanta Center
12:02AM 35.2572 -84.7636 47° Northeast 432 497 20,300 -3,600 Descending Atlanta Center
12:03AM 35.3392 -84.6600 46° Northeast 419 482 16,700 -3,420 Descending Atlanta Center
12:04AM 35.4147 -84.5586 48° Northeast 409 471 13,500 -2,940 Descending Atlanta Center
12:05AM 35.4817 -84.4647 49° Northeast 387 445 10,900 -2,160 Descending Atlanta Center
12:06AM 35.5425 -84.3883 46° Northeast 345 397 9,200 -2,160 Descending Atlanta Center
12:07AM 35.5908 -84.3094 53° Northeast 304 350 6,600 -1,800 Descending Atlanta Center
12:08AM 35.6347 -84.2431 51° Northeast 276 318 5,700 -1,020 Descending Atlanta Center
12:09AM 35.6764 -84.1767 52° Northeast 253 291 4,600 -1,260 Descending Atlanta Center
12:10AM 35.7142 -84.1128 54° Northeast 241 277 3,200 -1,200 Descending Atlanta Center
12:11AM 35.7517 -84.0644 46° Northeast 216 249 2,300 -900 Descending Atlanta Center
12:12AM 35.7850 -84.0258 43° Northeast 181 208 1,400 -660 Descending Atlanta Center
12:13AM 35.8206 -83.9825 45° Northeast 168 193 1,000 -420 Descending Atlanta Center